Bei Facebook empfehlenBei Twitter postenGoogle plusPinterest

Das Wetter im Erzgebirge am 01.02.2016

Wetter und Klima am 01.02.2016 Holzhau im Erzgebirge (630m ü.NN)
Letzte gemessene Temperatur und Uhrzeit der Messung23:45:00 Uhr6.70 °C
Temperatur (Maximum / Höchstwert) und Uhrzeit der Messung16:00:00 Uhr8.80 °C
Temperatur (Minimum / Tiefstwert) und Uhrzeit der Messung00:00:001.10 °C
Errechneter Absolutwert der Temperaturschwankungen zwischen Tmin und Tmax des Tages7.70 K
Errechnete Tagesmitteltemperatur5.95104 °C
Gesamt - Niederschlag des Tages (in flüssiger Form)11.91 Liter / m²
Luftdruck (Maximum / Höchstwert) und Zeitpunkt der Messung20:00:00 Uhr1012.90 hPa
Luftdruck (Minimum / Tiefstwert) und Zeitpunkt der Messung00:00:00 Uhr1003.60 hPa
Errechneter Absolutwert der Luftdruckschwankungen des Tages9.30 hPa
Höchste gemessene Windgeschwindigkeit und Uhrzeit der Messung08:30:00 Uhr183.60 km/h
Errechnete Windhäufigkeit in Relation zu den Messwerten des Tages64.58333 %
Niedrigste Windkühle (Windchill) und Zeitpunkt der Messung08:30:00 Uhr-6.50 °C
Taupunkt (Maximum / Höchstwert) und Uhrzeit der Messung14:45:00 Uhr8.40 °C
Taupunkt (Minimum / Tiefstwert) und Uhrzeit der Messung00:00:00-0.20 °C
Anzahl der automatisch eingelesenen Messwerte 96

Detaillierte Wetter- und Klima- Messwerte für den 01.02.2016 in Holzhau im Erzgebirge (630m ü.NN)
ZeitTemperaturLuftdruckRel. LuftfeuchteWindWindrichtungWindchillTaupunktNiederschlag l/m²
23:45:006.70 °C1012.70 hPa86.00 %4.50 °C11.91
23:30:006.60 °C1012.60 hPa86.00 %4.40 °C11.91
23:15:006.40 °C1012.70 hPa86.00 %4.68 km/hWNW6.40 °C4.20 °C11.91
23:00:006.30 °C1012.80 hPa87.00 %3.24 km/hSW6.30 °C4.30 °C11.91
22:45:006.10 °C1012.80 hPa86.00 %3.24 km/hWNW6.10 °C3.90 °C11.91
22:30:006.00 °C1012.60 hPa86.00 %3.60 km/hWSW6.00 °C3.80 °C11.91
22:15:006.10 °C1012.50 hPa86.00 %3.90 °C11.91
22:00:006.40 °C1012.60 hPa85.00 %8.64 km/hW4.60 °C4.10 °C11.91
21:45:006.80 °C1012.70 hPa85.00 %4.50 °C11.91
21:30:006.90 °C1012.60 hPa85.00 %10.08 km/hWNW4.90 °C4.60 °C11.91
21:15:007.20 °C1012.60 hPa85.00 %4.68 km/hWNW7.20 °C4.90 °C11.91
21:00:007.30 °C1012.50 hPa85.00 %14.40 km/hNW4.70 °C5.00 °C11.91
20:45:007.30 °C1012.80 hPa86.00 %11.52 km/hWSW5.10 °C5.10 °C11.91
20:30:007.40 °C1012.60 hPa87.00 %10.44 km/hNNW5.40 °C5.40 °C11.91
20:15:007.50 °C1012.70 hPa88.00 %14.40 km/hWSW4.90 °C5.60 °C11.91
20:00:007.60 °C1012.90 hPa88.00 %11.16 km/hWSW5.60 °C5.70 °C11.91
19:45:007.70 °C1012.70 hPa88.00 %10.80 km/hW5.70 °C5.80 °C11.91
19:30:007.80 °C1012.50 hPa89.00 %7.92 km/hNW6.40 °C6.10 °C11.91
19:15:007.80 °C1012.80 hPa90.00 %12.60 km/hWNW5.60 °C6.30 °C11.91
19:00:007.90 °C1012.50 hPa91.00 %10.80 km/hWNW6.00 °C6.50 °C11.91
18:45:008.10 °C1012.40 hPa91.00 %10.44 km/hNNW6.30 °C6.70 °C11.91
18:30:008.10 °C1012.10 hPa92.00 %24.12 km/hWSW4.60 °C6.90 °C11.91
18:15:008.10 °C1011.90 hPa92.00 %3.24 km/hW8.10 °C6.90 °C11.91
18:00:008.30 °C1011.70 hPa93.00 %5.76 km/hWNW7.60 °C7.20 °C11.91
17:45:008.40 °C1011.50 hPa93.00 %11.52 km/hW6.50 °C7.30 °C11.91
17:30:008.40 °C1011.10 hPa94.00 %5.76 km/hSW7.70 °C7.50 °C11.91
17:15:008.40 °C1010.90 hPa94.00 %7.20 km/hWSW7.30 °C7.50 °C11.91
17:00:008.50 °C1010.80 hPa95.00 %10.44 km/hWNW6.80 °C7.70 °C11.91
16:45:008.70 °C1011.40 hPa95.00 %7.56 km/hSW7.60 °C7.90 °C11.91
16:30:008.70 °C1011.30 hPa95.00 %4.68 km/hWSW8.70 °C7.90 °C11.91
16:15:008.70 °C1011.30 hPa95.00 %12.60 km/hSW6.60 °C7.90 °C11.91
16:00:008.80 °C1011.20 hPa95.00 %3.24 km/hWSW8.80 °C8.00 °C11.91
15:45:008.80 °C1011.30 hPa96.00 %7.56 km/hW7.70 °C8.20 °C11.91
15:30:008.80 °C1011.30 hPa96.00 %6.48 km/hWNW8.00 °C8.20 °C11.91
15:15:008.80 °C1011.30 hPa96.00 %10.44 km/hWNW7.10 °C8.20 °C11.91
15:00:008.80 °C1011.60 hPa96.00 %6.12 km/hW8.10 °C8.20 °C11.91
14:45:008.80 °C1011.20 hPa97.00 %10.80 km/hWNW7.10 °C8.40 °C11.91
14:30:008.70 °C1011.20 hPa97.00 %21.96 km/hWSW5.50 °C8.30 °C11.91
14:15:008.60 °C1010.80 hPa97.00 %15.12 km/hSSW6.20 °C8.20 °C11.91
14:00:008.50 °C1010.80 hPa97.00 %14.40 km/hNW6.10 °C8.10 °C11.91
13:45:008.30 °C1010.90 hPa97.00 %6.84 km/hWNW7.30 °C7.90 °C11.91
13:30:008.30 °C1010.90 hPa97.00 %5.40 km/hW7.70 °C7.90 °C11.91
13:15:008.40 °C1011.10 hPa97.00 %6.12 km/hWNW7.60 °C8.00 °C11.91
13:00:008.40 °C1010.90 hPa97.00 %8.00 °C11.40
12:45:008.40 °C1011.00 hPa97.00 %12.24 km/hWNW6.30 °C8.00 °C11.40
12:30:008.40 °C1011.10 hPa97.00 %11.52 km/hSW6.50 °C8.00 °C11.40
12:15:008.20 °C1010.70 hPa97.00 %5.76 km/hWSW7.50 °C7.80 °C10.88
12:00:008.10 °C1010.70 hPa97.00 %9.36 km/hNW6.50 °C7.70 °C10.88
11:45:007.80 °C1010.60 hPa97.00 %2.52 km/hWNW7.80 °C7.40 °C10.88
11:30:007.00 °C1010.50 hPa96.00 %6.40 °C10.36
11:15:005.80 °C1010.50 hPa96.00 %5.20 °C10.36
11:00:005.40 °C1010.50 hPa96.00 %3.60 km/hSSO5.40 °C4.80 °C10.36
10:45:005.30 °C1010.50 hPa96.00 %4.70 °C9.84
10:30:005.20 °C1010.20 hPa96.00 %4.60 °C9.84
10:15:005.10 °C1009.90 hPa96.00 %4.50 °C9.32
10:00:004.90 °C1010.10 hPa96.00 %4.30 °C9.32
09:45:004.60 °C1010.20 hPa96.00 %4.00 °C9.32
09:30:004.40 °C1009.80 hPa96.00 %2.88 km/hSW4.40 °C3.80 °C9.32
09:15:004.40 °C1009.90 hPa96.00 %3.80 °C9.32
09:00:004.40 °C1009.60 hPa96.00 %3.80 °C8.81
08:45:004.30 °C1009.50 hPa96.00 %3.70 °C8.81
08:30:004.30 °C1009.00 hPa96.00 %183.60 km/hW-6.50 °C3.70 °C8.81
08:15:004.30 °C1008.80 hPa96.00 %3.70 °C8.29
08:00:004.30 °C1008.60 hPa96.00 %4.68 km/hSW4.30 °C3.70 °C8.29
07:45:004.30 °C1008.50 hPa96.00 %3.70 °C8.29
07:30:004.30 °C1008.50 hPa96.00 %3.70 °C7.77
07:15:004.30 °C1008.00 hPa96.00 %3.70 °C7.25
07:00:004.30 °C1007.80 hPa95.00 %3.60 °C7.25
06:45:004.40 °C1007.50 hPa95.00 %3.70 °C6.73
06:30:004.40 °C1007.60 hPa95.00 %3.70 °C6.73
06:15:004.40 °C1007.20 hPa95.00 %2.52 km/hNW4.40 °C3.70 °C6.22
06:00:004.40 °C1006.90 hPa95.00 %4.68 km/hWSW4.40 °C3.70 °C5.70
05:45:004.40 °C1006.70 hPa95.00 %3.70 °C5.70
05:30:004.40 °C1006.70 hPa95.00 %2.52 km/hWNW4.40 °C3.70 °C5.18
05:15:004.40 °C1006.30 hPa95.00 %3.70 °C4.66
05:00:004.50 °C1006.10 hPa95.00 %6.12 km/hWNW3.10 °C3.80 °C4.66
04:45:004.50 °C1005.90 hPa95.00 %10.80 km/hN1.90 °C3.80 °C4.66
04:30:004.40 °C1005.80 hPa95.00 %5.40 km/hNW3.20 °C3.70 °C4.66
04:15:004.40 °C1005.60 hPa94.00 %5.04 km/hN3.40 °C3.50 °C4.14
04:00:004.40 °C1005.30 hPa94.00 %10.08 km/hWNW1.90 °C3.50 °C4.14
03:45:004.30 °C1005.10 hPa94.00 %7.20 km/hWNW2.50 °C3.40 °C3.63
03:30:004.20 °C1004.80 hPa94.00 %2.88 km/hWNW4.20 °C3.30 °C3.63
03:15:004.10 °C1004.50 hPa94.00 %3.20 °C3.63
03:00:003.90 °C1004.40 hPa93.00 %3.60 km/hNW3.90 °C2.90 °C3.11
02:45:003.60 °C1004.40 hPa93.00 %2.16 km/hNW3.60 °C2.60 °C3.11
02:30:003.30 °C1004.20 hPa93.00 %5.76 km/hNW1.90 °C2.30 °C3.11
02:15:002.90 °C1004.00 hPa93.00 %1.90 °C2.59
02:00:002.60 °C1003.70 hPa92.00 %1.40 °C2.59
01:45:002.30 °C1003.70 hPa92.00 %1.10 °C2.07
01:30:002.10 °C1003.80 hPa92.00 %0.90 °C2.07
01:15:001.90 °C1003.70 hPa92.00 %0.70 °C1.55
01:00:001.80 °C1003.80 hPa92.00 %0.60 °C1.55
00:45:001.60 °C1003.90 hPa92.00 %0.40 °C1.04
00:30:001.30 °C1003.80 hPa91.00 %3.96 km/hSSW1.30 °C0.00 °C1.04
00:15:001.30 °C1003.70 hPa91.00 %0.00 °C0.52
00:00:001.10 °C1003.60 hPa91.00 %-0.20 °C 

Permanenter Link zu dieser Seite: Wetter im Erzgebirge am 01.02.2016
Performance-Info: Die Erstellung der Seite / Statistik(en) / Tabelle(n) erforderte 5 Datenbankserver-Abfrage(n) und dauerte 104 Millisekunden. (Dieser Messwert ist von der Gesamt-Auslastung des Servers abhängig.)
Erzgebirge - Wetter | Erzgebirge - Wetter (Mobilgeräte) | Komplette Klimadatenbank